Reynoldsburg, Illinois
Current Conditions -  °F | °C
As of 12:53 PM on Thursday 27 Nov 2014 (Local Time) from KMWA Reporting Station
Overcast Overcast  
Wind Chill: 23°   Ceiling: 1600
Heat Index: 32°   Visibility: 7mi
Dew Point: 27°   Wind: 12mph
Humidity: 80%   Direction: 310°NW
Pressure: 30.47"   Gusts: NA
Location:  37.5342°N, 88.7644°W
Report Text: KMWA 271853Z 31010KT 7SM BKN016 BKN021 OVC037 00/M03 A3047
Loading
Personal Weather Stations






























Interactive Weather Map New forecast layout! Learn more

10-Day Weather Forecast

Advertisements
Track Severe Weather on mobile